createdAt,value
2022-12-18T00:02:19.276Z,-5.30
2022-12-18T00:04:50.076Z,-5.40
2022-12-18T00:07:23.108Z,-5.40
2022-12-18T00:10:03.269Z,-5.50
2022-12-18T00:12:33.498Z,-5.50
2022-12-18T00:15:05.342Z,-5.50
2022-12-18T00:17:33.292Z,-5.50
2022-12-18T00:20:01.141Z,-5.40
2022-12-18T00:22:29.090Z,-5.40
2022-12-18T00:24:59.187Z,-5.40
2022-12-18T00:27:50.268Z,-5.40
2022-12-18T00:30:18.985Z,-5.40
2022-12-18T00:33:08.350Z,-5.30
2022-12-18T00:35:39.049Z,-5.30
2022-12-18T00:38:23.524Z,-5.30
2022-12-18T00:41:12.539Z,-5.30
2022-12-18T00:43:41.083Z,-5.30
2022-12-18T00:46:09.288Z,-5.30
2022-12-18T00:48:53.890Z,-5.30
2022-12-18T00:51:22.014Z,-5.30
2022-12-18T00:53:51.815Z,-5.30
2022-12-18T00:56:34.051Z,-5.30
2022-12-18T00:59:10.927Z,-5.30
2022-12-18T01:01:38.950Z,-5.40
2022-12-18T01:04:07.250Z,-5.50
2022-12-18T01:06:35.543Z,-5.40
2022-12-18T01:09:03.809Z,-5.50
2022-12-18T01:11:35.704Z,-5.60
2022-12-18T01:14:04.063Z,-5.60
2022-12-18T01:16:32.674Z,-5.60
2022-12-18T01:19:11.920Z,-5.50
2022-12-18T01:21:57.098Z,-5.60
2022-12-18T01:24:30.162Z,-5.60
2022-12-18T01:27:03.113Z,-5.70
2022-12-18T01:29:31.169Z,-5.70
2022-12-18T01:31:59.346Z,-5.70
2022-12-18T01:34:27.522Z,-5.70
2022-12-18T01:36:55.450Z,-5.70
2022-12-18T01:39:23.399Z,-5.60
2022-12-18T01:42:03.552Z,-5.50
2022-12-18T01:45:07.792Z,-5.50
2022-12-18T01:47:47.759Z,-5.60
2022-12-18T01:50:19.428Z,-5.70
2022-12-18T01:52:56.197Z,-5.70
2022-12-18T01:55:27.883Z,-5.80
2022-12-18T01:58:00.471Z,-5.80
2022-12-18T02:00:30.173Z,-5.80
2022-12-18T02:03:13.871Z,-5.70
2022-12-18T02:05:57.080Z,-5.70
2022-12-18T02:08:33.275Z,-5.80
2022-12-18T02:11:09.360Z,-5.90
2022-12-18T02:13:44.482Z,-5.90
2022-12-18T02:16:24.159Z,-5.90
2022-12-18T02:18:58.737Z,-6.00
2022-12-18T02:21:36.274Z,-6.00
2022-12-18T02:24:18.372Z,-6.10
2022-12-18T02:26:51.185Z,-6.10
2022-12-18T02:29:23.409Z,-6.10
2022-12-18T02:32:00.720Z,-6.10
2022-12-18T02:34:46.210Z,-6.20
2022-12-18T02:37:30.438Z,-6.20
2022-12-18T02:40:09.746Z,-6.10
2022-12-18T02:42:41.717Z,-6.10
2022-12-18T02:45:10.417Z,-6.10
2022-12-18T02:47:47.531Z,-6.10
2022-12-18T02:50:29.149Z,-5.90
2022-12-18T02:53:05.418Z,-6.00
2022-12-18T02:55:45.854Z,-6.00
2022-12-18T02:58:23.902Z,-5.90
2022-12-18T03:00:56.969Z,-5.90
2022-12-18T03:03:37.910Z,-5.90
2022-12-18T03:06:11.051Z,-5.80
2022-12-18T03:08:42.269Z,-5.80
2022-12-18T03:11:13.059Z,-5.80
2022-12-18T03:13:48.326Z,-5.80
2022-12-18T03:16:23.966Z,-5.80
2022-12-18T03:18:56.910Z,-5.70
2022-12-18T03:21:30.244Z,-5.80
2022-12-18T03:23:58.885Z,-5.80
2022-12-18T03:26:29.956Z,-5.70
2022-12-18T03:29:04.936Z,-5.70
2022-12-18T03:31:37.448Z,-5.80
2022-12-18T03:34:21.617Z,-5.80
2022-12-18T03:36:49.767Z,-5.80
2022-12-18T03:39:18.018Z,-5.70
2022-12-18T03:41:53.102Z,-5.60
2022-12-18T03:44:28.989Z,-5.60
2022-12-18T03:47:05.717Z,-5.50
2022-12-18T03:49:39.487Z,-5.60
2022-12-18T03:52:12.251Z,-5.60
2022-12-18T03:54:42.864Z,-5.60
2022-12-18T03:57:17.319Z,-5.60
2022-12-18T03:59:49.495Z,-5.70
2022-12-18T04:02:19.437Z,-5.70
2022-12-18T04:04:52.504Z,-5.80
2022-12-18T04:07:21.795Z,-5.80
2022-12-18T04:09:52.379Z,-5.80
2022-12-18T04:12:23.557Z,-5.80
2022-12-18T04:14:52.912Z,-5.90
2022-12-18T04:17:20.989Z,-5.90
2022-12-18T04:19:49.083Z,-5.80
2022-12-18T04:22:17.442Z,-5.80
2022-12-18T04:24:45.402Z,-5.90
2022-12-18T04:27:14.968Z,-6.00
2022-12-18T04:29:43.040Z,-6.00
2022-12-18T04:32:12.631Z,-5.90
2022-12-18T04:34:40.628Z,-5.90
2022-12-18T04:37:09.094Z,-5.90
2022-12-18T04:39:37.159Z,-5.90
2022-12-18T04:42:05.251Z,-6.00
2022-12-18T04:44:38.364Z,-5.90
2022-12-18T04:47:06.828Z,-5.90
2022-12-18T04:49:36.273Z,-5.80
2022-12-18T04:52:04.254Z,-5.80
2022-12-18T04:54:32.138Z,-5.90
2022-12-18T04:56:59.965Z,-5.80
2022-12-18T04:59:28.176Z,-5.90
2022-12-18T05:02:03.794Z,-5.90
2022-12-18T05:04:31.909Z,-5.80
2022-12-18T05:07:08.808Z,-6.00
2022-12-18T05:09:36.798Z,-6.00
2022-12-18T05:12:07.336Z,-6.10
2022-12-18T05:14:35.383Z,-6.20
2022-12-18T05:17:03.430Z,-6.30
2022-12-18T05:19:31.275Z,-6.20
2022-12-18T05:21:59.602Z,-6.30
2022-12-18T05:24:29.053Z,-6.30
2022-12-18T05:26:57.035Z,-6.20
2022-12-18T05:29:27.337Z,-6.30
2022-12-18T05:31:58.177Z,-6.20
2022-12-18T05:34:34.443Z,-6.10
2022-12-18T05:37:04.860Z,-6.00
2022-12-18T05:39:39.735Z,-6.00
2022-12-18T05:42:07.976Z,-5.90
2022-12-18T05:44:35.979Z,-5.90
2022-12-18T05:47:03.932Z,-6.10
2022-12-18T05:49:31.843Z,-6.10
2022-12-18T05:51:59.692Z,-6.00
2022-12-18T05:54:29.443Z,-6.00
2022-12-18T05:56:58.933Z,-5.90
2022-12-18T05:59:29.880Z,-5.80
2022-12-18T06:02:04.464Z,-5.80
2022-12-18T06:04:41.510Z,-5.70
2022-12-18T06:07:14.830Z,-5.70
2022-12-18T06:09:42.856Z,-5.70
2022-12-18T06:12:12.754Z,-5.70
2022-12-18T06:14:40.709Z,-5.60
2022-12-18T06:17:08.712Z,-5.60
2022-12-18T06:19:36.843Z,-5.80
2022-12-18T06:22:04.952Z,-5.90
2022-12-18T06:24:34.107Z,-5.80
2022-12-18T06:27:02.093Z,-5.70
2022-12-18T06:29:31.437Z,-5.80
2022-12-18T06:31:59.467Z,-5.80
2022-12-18T06:34:27.717Z,-5.80
2022-12-18T06:36:55.736Z,-5.80
2022-12-18T06:39:23.796Z,-5.70
2022-12-18T06:41:51.806Z,-5.90
2022-12-18T06:44:21.478Z,-6.00
2022-12-18T06:46:50.793Z,-6.00
2022-12-18T06:49:18.768Z,-6.10
2022-12-18T06:51:46.745Z,-6.10
2022-12-18T06:54:15.418Z,-6.20
2022-12-18T06:56:46.785Z,-6.30
2022-12-18T06:59:15.429Z,-6.40
2022-12-18T07:01:43.555Z,-6.40
2022-12-18T07:04:13.048Z,-6.50
2022-12-18T07:06:41.183Z,-6.60
2022-12-18T07:09:10.699Z,-6.60
2022-12-18T07:11:38.610Z,-6.50
2022-12-18T07:14:06.721Z,-6.50
2022-12-18T07:16:37.094Z,-6.30
2022-12-18T07:19:07.528Z,-6.40
2022-12-18T07:21:38.962Z,-6.50
2022-12-18T07:24:09.754Z,-6.50
2022-12-18T07:26:37.634Z,-6.60
2022-12-18T07:29:05.552Z,-6.50
2022-12-18T07:31:35.678Z,-6.40
2022-12-18T07:34:04.941Z,-6.40
2022-12-18T07:36:34.624Z,-6.30
2022-12-18T07:39:03.859Z,-6.20
2022-12-18T07:41:31.743Z,-6.20
2022-12-18T07:43:59.658Z,-6.20
2022-12-18T07:46:27.527Z,-6.20
2022-12-18T07:48:55.540Z,-6.20
2022-12-18T07:51:24.358Z,-6.20
2022-12-18T07:53:53.075Z,-6.20
2022-12-18T07:56:31.389Z,-6.10
2022-12-18T07:59:00.406Z,-6.10
2022-12-18T08:01:28.855Z,-6.00
2022-12-18T08:03:56.923Z,-6.00
2022-12-18T08:06:25.201Z,-6.00
2022-12-18T08:08:54.540Z,-6.00
2022-12-18T08:11:25.167Z,-6.10
2022-12-18T08:13:53.038Z,-6.00
2022-12-18T08:16:24.566Z,-5.90
2022-12-18T08:18:54.221Z,-5.90
2022-12-18T08:21:25.373Z,-5.80
2022-12-18T08:23:54.820Z,-5.70
2022-12-18T08:26:24.648Z,-5.60
2022-12-18T08:28:59.404Z,-5.60
2022-12-18T08:31:28.948Z,-5.60
2022-12-18T08:33:57.521Z,-5.60
2022-12-18T08:36:38.848Z,-5.60
2022-12-18T08:39:11.236Z,-5.50
2022-12-18T08:41:47.206Z,-5.40
2022-12-18T08:44:32.959Z,-5.50
2022-12-18T08:47:00.835Z,-5.40
2022-12-18T08:49:28.670Z,-5.50
2022-12-18T08:51:58.042Z,-5.40
2022-12-18T08:57:52.215Z,-5.30
2022-12-18T09:00:20.930Z,-5.30
2022-12-18T09:02:49.397Z,-5.30
2022-12-18T09:05:17.861Z,-5.20
2022-12-18T09:07:45.824Z,-5.10
2022-12-18T09:10:15.564Z,-5.10
2022-12-18T09:12:43.402Z,-5.00
2022-12-18T09:15:12.980Z,-4.90
2022-12-18T09:17:40.967Z,-4.90
2022-12-18T09:20:10.077Z,-4.80
2022-12-18T09:22:37.911Z,-4.70
2022-12-18T09:25:08.685Z,-4.70
2022-12-18T09:27:38.568Z,-4.80
2022-12-18T09:30:10.144Z,-5.00
2022-12-18T09:32:39.483Z,-5.10
2022-12-18T09:35:07.867Z,-5.10
2022-12-18T09:37:35.799Z,-4.90
2022-12-18T09:40:03.869Z,-4.70
2022-12-18T09:42:32.127Z,-4.50
2022-12-18T09:45:01.382Z,-4.40
2022-12-18T09:47:38.167Z,-4.30
2022-12-18T09:50:19.398Z,-4.10
2022-12-18T09:52:50.192Z,-4.10
2022-12-18T09:55:26.285Z,-4.10
2022-12-18T09:57:59.023Z,-4.10
2022-12-18T10:00:27.718Z,-4.10
2022-12-18T10:03:02.914Z,-4.20
2022-12-18T10:05:43.672Z,-4.20
2022-12-18T10:08:19.768Z,-4.00
2022-12-18T10:13:41.261Z,-3.80
2022-12-18T10:16:17.566Z,-3.60
2022-12-18T10:19:04.907Z,-3.50
2022-12-18T10:21:41.828Z,-3.40
2022-12-18T10:24:23.190Z,-3.50
2022-12-18T10:26:51.158Z,-3.50
2022-12-18T10:29:19.587Z,-3.40
2022-12-18T10:31:47.534Z,-3.70
2022-12-18T10:34:17.300Z,-3.60
2022-12-18T10:36:50.237Z,-3.60
2022-12-18T10:39:22.768Z,-3.50
2022-12-18T10:41:53.376Z,-3.50
2022-12-18T10:44:23.088Z,-3.30
2022-12-18T10:46:56.695Z,-2.90
2022-12-18T10:49:27.302Z,-2.60
2022-12-18T10:52:09.510Z,-2.20
2022-12-18T10:54:38.870Z,-1.90
2022-12-18T10:57:36.960Z,-1.60
2022-12-18T11:00:28.577Z,-1.50
2022-12-18T11:02:57.256Z,-1.00
2022-12-18T11:05:32.700Z,-1.20
2022-12-18T11:08:04.830Z,-1.50
2022-12-18T11:10:37.670Z,-1.40
2022-12-18T11:13:18.238Z,-1.20
2022-12-18T11:15:50.077Z,-0.70
2022-12-18T11:18:25.556Z,0.00
2022-12-18T11:20:58.662Z,0.30
2022-12-18T11:23:29.194Z,0.40
2022-12-18T11:26:02.612Z,0.40
2022-12-18T11:28:41.853Z,0.60
2022-12-18T11:31:29.848Z,0.60
2022-12-18T11:34:27.913Z,0.30
2022-12-18T11:36:56.816Z,0.00
2022-12-18T11:39:33.794Z,0.00
2022-12-18T11:42:13.451Z,-0.50
2022-12-18T11:44:48.172Z,-0.70
2022-12-18T11:47:33.665Z,-1.10
2022-12-18T11:50:03.756Z,-1.50
2022-12-18T11:52:40.926Z,-1.60
2022-12-18T11:55:17.986Z,-1.70
2022-12-18T11:57:54.143Z,-1.40
2022-12-18T12:00:23.322Z,-1.30
2022-12-18T12:03:19.221Z,-1.20
2022-12-18T12:05:59.456Z,-1.10
2022-12-18T12:08:38.658Z,-0.90
2022-12-18T12:11:24.847Z,-0.60
2022-12-18T12:14:11.763Z,-0.70
2022-12-18T12:16:46.983Z,-0.40
2022-12-18T12:19:29.784Z,-0.20
2022-12-18T12:22:04.974Z,0.20
2022-12-18T12:24:41.966Z,0.50
2022-12-18T12:27:22.635Z,0.70
2022-12-18T12:30:01.925Z,1.00
2022-12-18T12:32:44.451Z,1.00
2022-12-18T12:35:24.532Z,0.90
2022-12-18T12:38:00.699Z,0.90
2022-12-18T12:43:29.670Z,0.80
2022-12-18T12:46:02.222Z,0.50
2022-12-18T12:48:38.799Z,0.10
2022-12-18T12:51:15.734Z,-0.10
2022-12-18T12:53:46.505Z,-0.10
2022-12-18T12:56:25.891Z,-0.20
2022-12-18T12:59:08.773Z,-0.10
2022-12-18T13:01:43.241Z,0.00
2022-12-18T13:04:21.532Z,-0.20
2022-12-18T13:06:59.327Z,-0.20
2022-12-18T13:09:31.482Z,-0.20
2022-12-18T13:12:23.092Z,-0.40
2022-12-18T13:14:54.257Z,-0.40
2022-12-18T13:17:35.530Z,-0.40
2022-12-18T13:20:12.707Z,-0.70
2022-12-18T13:22:45.300Z,-1.10
2022-12-18T13:25:37.793Z,-1.10
2022-12-18T13:28:10.635Z,-1.20
2022-12-18T13:31:01.370Z,-1.00
2022-12-18T13:36:41.391Z,-1.00
2022-12-18T13:39:30.024Z,-0.90
2022-12-18T13:42:56.385Z,-0.80
2022-12-18T13:45:48.033Z,-0.80
2022-12-18T13:48:26.009Z,-1.00
2022-12-18T13:51:00.964Z,-1.30
2022-12-18T13:53:32.569Z,-1.40
2022-12-18T13:56:03.651Z,-1.40
2022-12-18T13:58:34.315Z,-1.50
2022-12-18T14:01:05.602Z,-1.50
2022-12-18T14:03:38.000Z,-1.50
2022-12-18T14:06:09.926Z,-1.60
2022-12-18T14:08:41.482Z,-1.50
2022-12-18T14:11:19.264Z,-1.50
2022-12-18T14:13:51.389Z,-1.80
2022-12-18T14:16:20.417Z,-1.90
2022-12-18T14:18:56.341Z,-1.80
2022-12-18T14:21:31.707Z,-1.70
2022-12-18T14:24:18.598Z,-1.60
2022-12-18T14:26:54.926Z,-1.50
2022-12-18T14:29:26.699Z,-1.50
2022-12-18T14:32:17.542Z,-1.50
2022-12-18T14:34:50.550Z,-1.70
2022-12-18T14:37:19.270Z,-1.80
2022-12-18T14:39:59.125Z,-1.90
2022-12-18T14:42:29.283Z,-2.00
2022-12-18T14:45:41.105Z,-2.20
2022-12-18T14:48:16.304Z,-2.10
2022-12-18T14:51:00.465Z,-2.20
2022-12-18T14:53:37.134Z,-2.30
2022-12-18T14:56:15.439Z,-2.30
2022-12-18T14:58:48.643Z,-2.40
2022-12-18T15:01:29.255Z,-2.40
2022-12-18T15:03:59.503Z,-2.40
2022-12-18T15:06:40.791Z,-2.30
2022-12-18T15:09:24.604Z,-2.30
2022-12-18T15:12:02.071Z,-2.40
2022-12-18T15:14:36.909Z,-2.40
2022-12-18T15:17:09.420Z,-2.50
2022-12-18T15:19:42.424Z,-2.50
2022-12-18T15:22:30.543Z,-2.50
2022-12-18T15:25:00.134Z,-2.50
2022-12-18T15:27:31.773Z,-2.50
2022-12-18T15:30:06.954Z,-2.50
2022-12-18T15:32:35.256Z,-2.50
2022-12-18T15:35:16.819Z,-2.50
2022-12-18T15:37:46.909Z,-2.60
2022-12-18T15:40:17.351Z,-2.60
2022-12-18T15:43:03.518Z,-2.60
2022-12-18T15:45:31.493Z,-2.70
2022-12-18T15:48:08.582Z,-2.70
2022-12-18T15:50:36.827Z,-2.80
2022-12-18T15:53:06.248Z,-2.80
2022-12-18T15:55:57.815Z,-2.80
2022-12-18T15:58:28.989Z,-2.80
2022-12-18T16:01:00.262Z,-2.80
2022-12-18T16:03:31.002Z,-2.80
2022-12-18T16:06:02.883Z,-2.80
2022-12-18T16:08:34.291Z,-2.80
2022-12-18T16:11:02.836Z,-2.80
2022-12-18T16:13:31.034Z,-2.80
2022-12-18T16:16:00.784Z,-2.80
2022-12-18T16:18:30.107Z,-2.80
2022-12-18T16:20:58.160Z,-3.00
2022-12-18T16:23:26.169Z,-3.00
2022-12-18T16:25:55.692Z,-3.00
2022-12-18T16:28:23.778Z,-3.00
2022-12-18T16:30:51.806Z,-3.00
2022-12-18T16:33:22.242Z,-2.90
2022-12-18T16:35:54.054Z,-2.90
2022-12-18T16:38:22.161Z,-2.90
2022-12-18T16:41:05.909Z,-2.80
2022-12-18T16:43:35.317Z,-2.80
2022-12-18T16:46:03.274Z,-2.80
2022-12-18T16:48:31.221Z,-2.80
2022-12-18T16:51:03.569Z,-2.70
2022-12-18T16:53:31.711Z,-2.70
2022-12-18T16:56:01.184Z,-2.70
2022-12-18T16:58:29.147Z,-2.70
2022-12-18T17:00:58.521Z,-2.70
2022-12-18T17:03:26.670Z,-2.70
2022-12-18T17:05:54.633Z,-2.70
2022-12-18T17:08:25.096Z,-2.70
2022-12-18T17:10:53.054Z,-2.70
2022-12-18T17:13:25.535Z,-2.70
2022-12-18T17:15:54.086Z,-2.70
2022-12-18T17:18:23.570Z,-2.70
2022-12-18T17:20:51.562Z,-2.70
2022-12-18T17:23:19.610Z,-2.70
2022-12-18T17:25:47.520Z,-2.70
2022-12-18T17:28:18.232Z,-2.70
2022-12-18T17:30:46.290Z,-2.70
2022-12-18T17:33:14.273Z,-2.70
2022-12-18T17:35:44.891Z,-2.60
2022-12-18T17:38:16.772Z,-2.60
2022-12-18T17:40:46.585Z,-2.60
2022-12-18T17:43:14.758Z,-2.60
2022-12-18T17:45:43.763Z,-2.60
2022-12-18T17:48:12.136Z,-2.50
2022-12-18T17:50:41.134Z,-2.50
2022-12-18T17:53:10.511Z,-2.60
2022-12-18T17:55:41.258Z,-2.60
2022-12-18T17:58:09.225Z,-2.60
2022-12-18T18:00:39.770Z,-2.60
2022-12-18T18:03:08.977Z,-2.60
2022-12-18T18:05:42.922Z,-2.50
2022-12-18T18:08:12.357Z,-2.60
2022-12-18T18:10:41.129Z,-2.70
2022-12-18T18:13:40.792Z,-2.70
2022-12-18T18:16:12.601Z,-2.70
2022-12-18T18:18:40.753Z,-2.70
2022-12-18T18:21:09.856Z,-2.70
2022-12-18T18:23:41.680Z,-2.70
2022-12-18T18:26:11.647Z,-2.70
2022-12-18T18:28:39.608Z,-2.60
2022-12-18T18:31:11.393Z,-2.60
2022-12-18T18:33:39.852Z,-2.70
2022-12-18T18:36:14.315Z,-2.60
2022-12-18T18:38:48.186Z,-2.60
2022-12-18T18:41:17.296Z,-2.60
2022-12-18T18:43:45.505Z,-2.60
2022-12-18T18:46:15.536Z,-2.60
2022-12-18T18:48:43.900Z,-2.50
2022-12-18T18:51:21.375Z,-2.50
2022-12-18T18:53:54.966Z,-2.50
2022-12-18T18:56:56.576Z,-2.50
2022-12-18T18:59:16.262Z,-2.50
2022-12-18T19:01:45.095Z,-2.50
2022-12-18T19:04:16.466Z,-2.50
2022-12-18T19:06:46.669Z,-2.40
2022-12-18T19:09:16.641Z,-2.30
2022-12-18T19:12:02.257Z,-2.30
2022-12-18T19:14:30.416Z,-2.20
2022-12-18T19:16:58.700Z,-2.20
2022-12-18T19:19:28.310Z,-2.20
2022-12-18T19:21:56.674Z,-2.10
2022-12-18T19:24:26.955Z,-2.10
2022-12-18T19:26:55.382Z,-2.10
2022-12-18T19:29:26.283Z,-2.20
2022-12-18T19:31:54.338Z,-2.20
2022-12-18T19:34:22.487Z,-2.10
2022-12-18T19:36:53.895Z,-2.10
2022-12-18T19:39:27.651Z,-2.00
2022-12-18T19:41:55.813Z,-2.00
2022-12-18T19:44:23.993Z,-2.00
2022-12-18T19:46:52.806Z,-2.00
2022-12-18T19:49:24.052Z,-2.00
2022-12-18T19:51:52.417Z,-2.00
2022-12-18T19:54:20.779Z,-1.90
2022-12-18T19:56:53.162Z,-1.90
2022-12-18T19:59:21.324Z,-1.90
2022-12-18T20:01:50.463Z,-1.80
2022-12-18T20:04:18.720Z,-1.80
2022-12-18T20:06:49.097Z,-1.80
2022-12-18T20:09:18.199Z,-1.80
2022-12-18T20:11:49.822Z,-1.70
2022-12-18T20:14:23.392Z,-1.70
2022-12-18T20:16:54.368Z,-1.70
2022-12-18T20:19:24.654Z,-1.80
2022-12-18T20:21:53.122Z,-1.80
2022-12-18T20:24:21.500Z,-1.80
2022-12-18T20:26:50.073Z,-1.70
2022-12-18T20:29:19.647Z,-1.70
2022-12-18T20:31:47.845Z,-1.70
2022-12-18T20:34:18.444Z,-1.70
2022-12-18T20:36:47.682Z,-1.70
2022-12-18T20:39:16.377Z,-1.70
2022-12-18T20:41:45.685Z,-1.70
2022-12-18T20:44:26.249Z,-1.70
2022-12-18T20:47:07.760Z,-1.60
2022-12-18T20:49:37.566Z,-1.70
2022-12-18T20:52:10.617Z,-1.60
2022-12-18T20:54:38.696Z,-1.60
2022-12-18T20:57:06.752Z,-1.60
2022-12-18T20:59:36.525Z,-1.60
2022-12-18T21:02:06.127Z,-1.60
2022-12-18T21:04:35.659Z,-1.60
2022-12-18T21:07:03.681Z,-1.60
2022-12-18T21:09:34.235Z,-1.60
2022-12-18T21:12:25.459Z,-1.50
2022-12-18T21:14:57.290Z,-1.50
2022-12-18T21:17:27.043Z,-1.50
2022-12-18T21:19:56.597Z,-1.50
2022-12-18T21:22:25.204Z,-1.50
2022-12-18T21:24:56.065Z,-1.50
2022-12-18T21:27:29.824Z,-1.40
2022-12-18T21:29:58.113Z,-1.40
2022-12-18T21:32:31.955Z,-1.40
2022-12-18T21:35:01.839Z,-1.40
2022-12-18T21:37:29.832Z,-1.40
2022-12-18T21:39:57.802Z,-1.30
2022-12-18T21:42:43.226Z,-1.20
2022-12-18T21:45:12.140Z,-1.20
2022-12-18T21:47:41.556Z,-1.10
2022-12-18T21:50:10.177Z,-1.10
2022-12-18T21:52:38.234Z,-1.10
2022-12-18T21:55:10.160Z,-1.10
2022-12-18T21:57:41.350Z,-1.20
2022-12-18T22:00:18.281Z,-1.20
2022-12-18T22:03:12.404Z,-1.40
2022-12-18T22:05:37.161Z,-1.40
2022-12-18T22:08:06.966Z,-1.30
2022-12-18T22:10:35.469Z,-1.30
2022-12-18T22:13:03.806Z,-1.30
2022-12-18T22:15:31.846Z,-1.30
2022-12-18T22:18:01.241Z,-1.20
2022-12-18T22:20:30.215Z,-1.20
2022-12-18T22:22:58.546Z,-1.20
2022-12-18T22:25:26.889Z,-1.10
2022-12-18T22:28:12.219Z,-1.10
2022-12-18T22:30:40.430Z,-1.00
2022-12-18T22:33:09.708Z,-1.00
2022-12-18T22:35:39.698Z,-0.90
2022-12-18T22:38:07.899Z,-0.90
2022-12-18T22:40:35.804Z,-0.80
2022-12-18T22:43:04.227Z,-0.80
2022-12-18T22:45:32.352Z,-0.80
2022-12-18T22:48:03.134Z,-0.80
2022-12-18T22:50:33.856Z,-0.80
2022-12-18T22:53:01.920Z,-0.80
2022-12-18T22:55:31.541Z,-0.80
2022-12-18T22:57:59.464Z,-0.80
2022-12-18T23:00:27.331Z,-0.70
2022-12-18T23:03:00.423Z,-0.70
2022-12-18T23:05:30.465Z,-0.70
2022-12-18T23:07:59.878Z,-0.80
2022-12-18T23:10:28.958Z,-0.70
2022-12-18T23:12:57.177Z,-0.70
2022-12-18T23:15:28.185Z,-0.70
2022-12-18T23:17:57.709Z,-0.70
2022-12-18T23:20:25.937Z,-0.70
2022-12-18T23:22:54.138Z,-0.70
2022-12-18T23:25:23.521Z,-0.70
2022-12-18T23:27:51.617Z,-0.70
2022-12-18T23:30:19.780Z,-0.70
2022-12-18T23:32:48.265Z,-0.70
2022-12-18T23:35:16.268Z,-0.70
2022-12-18T23:38:00.533Z,-0.70
2022-12-18T23:40:30.875Z,-0.60
2022-12-18T23:43:00.216Z,-0.70
2022-12-18T23:45:28.311Z,-0.70
2022-12-18T23:47:56.381Z,-0.70
2022-12-18T23:50:29.679Z,-0.80
2022-12-18T23:53:04.979Z,-0.80
2022-12-18T23:55:38.529Z,-0.70
2022-12-18T23:58:06.539Z,-0.70
